Terminal Aerodrome Forecast
Issued by NWS

Home | Current Version | Previous Version | Text Only | Print | Product List | Glossary On
Versions: 1 2 3 4 5 6 7 8 9 10 11 12 13 14 15
000
FTUS43 KIWX 281700
TAFSBN
TAF
KSBN 281720Z 2818/0118 18006KT P6SM SCT025 BKN100
     FM010200 16005KT 4SM -SN BKN025 OVC040
     FM011400 30007KT 3SM -SN BR OVC015=

USA.gov is the U.S. government's official web portal to all federal, state and local government web resources and services.